sensor_id;sensor_type;location;lat;lon;timestamp;P1;durP1;ratioP1;P2;durP2;ratioP2
49678;SDS011;35570;48.218;16.326;2023-04-12T00:01:30;2.50;;;1.70;;
49678;SDS011;35570;48.218;16.326;2023-04-12T00:03:56;4.60;;;1.80;;
49678;SDS011;35570;48.218;16.326;2023-04-12T00:06:22;3.67;;;1.80;;
49678;SDS011;35570;48.218;16.326;2023-04-12T00:08:49;3.25;;;1.70;;
49678;SDS011;35570;48.218;16.326;2023-04-12T00:11:15;2.50;;;1.52;;
49678;SDS011;35570;48.218;16.326;2023-04-12T00:13:41;4.70;;;2.13;;
49678;SDS011;35570;48.218;16.326;2023-04-12T00:16:07;2.83;;;1.70;;
49678;SDS011;35570;48.218;16.326;2023-04-12T00:18:34;3.78;;;1.40;;
49678;SDS011;35570;48.218;16.326;2023-04-12T00:20:59;3.03;;;1.48;;
49678;SDS011;35570;48.218;16.326;2023-04-12T00:23:25;3.63;;;1.70;;
49678;SDS011;35570;48.218;16.326;2023-04-12T00:25:50;3.38;;;1.58;;
49678;SDS011;35570;48.218;16.326;2023-04-12T00:28:16;4.25;;;1.42;;
49678;SDS011;35570;48.218;16.326;2023-04-12T00:30:42;2.20;;;1.50;;
49678;SDS011;35570;48.218;16.326;2023-04-12T00:33:07;2.33;;;1.40;;
49678;SDS011;35570;48.218;16.326;2023-04-12T00:35:33;2.83;;;1.40;;
49678;SDS011;35570;48.218;16.326;2023-04-12T00:37:59;2.65;;;1.40;;
49678;SDS011;35570;48.218;16.326;2023-04-12T00:40:26;2.15;;;1.35;;
49678;SDS011;35570;48.218;16.326;2023-04-12T00:42:52;3.00;;;1.98;;
49678;SDS011;35570;48.218;16.326;2023-04-12T00:45:18;4.05;;;1.60;;
49678;SDS011;35570;48.218;16.326;2023-04-12T00:47:45;2.90;;;1.50;;
49678;SDS011;35570;48.218;16.326;2023-04-12T00:50:10;2.75;;;1.30;;
49678;SDS011;35570;48.218;16.326;2023-04-12T00:52:36;2.95;;;1.50;;
49678;SDS011;35570;48.218;16.326;2023-04-12T00:55:03;3.22;;;1.10;;
49678;SDS011;35570;48.218;16.326;2023-04-12T00:57:35;2.60;;;1.40;;
49678;SDS011;35570;48.218;16.326;2023-04-12T01:00:05;3.67;;;1.60;;
49678;SDS011;35570;48.218;16.326;2023-04-12T01:02:37;3.53;;;1.70;;
49678;SDS011;35570;48.218;16.326;2023-04-12T01:05:11;2.08;;;1.50;;
49678;SDS011;35570;48.218;16.326;2023-04-12T01:13:27;2.17;;;1.35;;
49678;SDS011;35570;48.218;16.326;2023-04-12T01:15:59;3.42;;;1.90;;
49678;SDS011;35570;48.218;16.326;2023-04-12T01:18:38;2.67;;;1.60;;
49678;SDS011;35570;48.218;16.326;2023-04-12T01:21:10;2.33;;;1.88;;
49678;SDS011;35570;48.218;16.326;2023-04-12T01:26:43;2.47;;;1.48;;
49678;SDS011;35570;48.218;16.326;2023-04-12T01:29:11;3.13;;;1.38;;
49678;SDS011;35570;48.218;16.326;2023-04-12T01:31:40;2.70;;;1.50;;
49678;SDS011;35570;48.218;16.326;2023-04-12T01:34:14;3.47;;;1.50;;
49678;SDS011;35570;48.218;16.326;2023-04-12T01:36:41;2.50;;;1.40;;
49678;SDS011;35570;48.218;16.326;2023-04-12T01:39:11;4.25;;;1.50;;
49678;SDS011;35570;48.218;16.326;2023-04-12T01:41:40;4.10;;;1.55;;
49678;SDS011;35570;48.218;16.326;2023-04-12T01:44:11;4.03;;;1.60;;
49678;SDS011;35570;48.218;16.326;2023-04-12T01:46:38;3.15;;;1.70;;
49678;SDS011;35570;48.218;16.326;2023-04-12T01:49:04;3.25;;;1.73;;
49678;SDS011;35570;48.218;16.326;2023-04-12T01:54:22;2.42;;;1.60;;
49678;SDS011;35570;48.218;16.326;2023-04-12T01:57:01;2.25;;;1.50;;
49678;SDS011;35570;48.218;16.326;2023-04-12T01:59:30;2.42;;;1.70;;
49678;SDS011;35570;48.218;16.326;2023-04-12T02:01:58;3.22;;;1.95;;
49678;SDS011;35570;48.218;16.326;2023-04-12T02:04:25;3.85;;;1.90;;
49678;SDS011;35570;48.218;16.326;2023-04-12T02:06:51;3.40;;;1.98;;
49678;SDS011;35570;48.218;16.326;2023-04-12T02:09:18;3.85;;;1.80;;
49678;SDS011;35570;48.218;16.326;2023-04-12T02:11:47;3.70;;;2.28;;
49678;SDS011;35570;48.218;16.326;2023-04-12T02:14:13;2.83;;;2.03;;
49678;SDS011;35570;48.218;16.326;2023-04-12T02:16:39;2.47;;;1.90;;
49678;SDS011;35570;48.218;16.326;2023-04-12T02:19:08;4.05;;;2.60;;
49678;SDS011;35570;48.218;16.326;2023-04-12T02:21:41;4.40;;;2.30;;
49678;SDS011;35570;48.218;16.326;2023-04-12T02:26:34;3.92;;;2.58;;
49678;SDS011;35570;48.218;16.326;2023-04-12T02:29:01;3.58;;;2.38;;
49678;SDS011;35570;48.218;16.326;2023-04-12T02:31:27;3.88;;;2.67;;
49678;SDS011;35570;48.218;16.326;2023-04-12T02:33:54;3.58;;;2.28;;
49678;SDS011;35570;48.218;16.326;2023-04-12T02:36:20;4.65;;;2.72;;
49678;SDS011;35570;48.218;16.326;2023-04-12T02:38:46;3.80;;;2.50;;
49678;SDS011;35570;48.218;16.326;2023-04-12T02:41:18;3.85;;;2.53;;
49678;SDS011;35570;48.218;16.326;2023-04-12T02:43:44;2.67;;;2.30;;
49678;SDS011;35570;48.218;16.326;2023-04-12T02:46:14;3.00;;;2.30;;
49678;SDS011;35570;48.218;16.326;2023-04-12T02:48:45;7.93;;;2.80;;
49678;SDS011;35570;48.218;16.326;2023-04-12T02:51:11;5.75;;;2.88;;
49678;SDS011;35570;48.218;16.326;2023-04-12T02:53:37;5.30;;;2.60;;
49678;SDS011;35570;48.218;16.326;2023-04-12T02:56:03;5.28;;;2.20;;
49678;SDS011;35570;48.218;16.326;2023-04-12T02:58:29;3.90;;;2.40;;
49678;SDS011;35570;48.218;16.326;2023-04-12T03:00:57;4.38;;;2.10;;
49678;SDS011;35570;48.218;16.326;2023-04-12T03:03:24;5.57;;;2.33;;
49678;SDS011;35570;48.218;16.326;2023-04-12T03:05:53;4.35;;;2.50;;
49678;SDS011;35570;48.218;16.326;2023-04-12T03:08:19;3.15;;;2.00;;
49678;SDS011;35570;48.218;16.326;2023-04-12T03:10:45;4.72;;;2.42;;
49678;SDS011;35570;48.218;16.326;2023-04-12T03:13:11;7.25;;;2.42;;
49678;SDS011;35570;48.218;16.326;2023-04-12T03:15:37;3.80;;;2.30;;
49678;SDS011;35570;48.218;16.326;2023-04-12T03:18:03;3.15;;;2.10;;
49678;SDS011;35570;48.218;16.326;2023-04-12T03:20:29;4.80;;;2.30;;
49678;SDS011;35570;48.218;16.326;2023-04-12T03:22:54;4.57;;;2.35;;
49678;SDS011;35570;48.218;16.326;2023-04-12T03:25:20;3.22;;;2.20;;
49678;SDS011;35570;48.218;16.326;2023-04-12T03:27:46;2.75;;;2.08;;
49678;SDS011;35570;48.218;16.326;2023-04-12T03:30:11;2.85;;;1.70;;
49678;SDS011;35570;48.218;16.326;2023-04-12T03:32:40;4.38;;;2.03;;
49678;SDS011;35570;48.218;16.326;2023-04-12T03:35:09;3.75;;;2.15;;
49678;SDS011;35570;48.218;16.326;2023-04-12T03:37:35;6.35;;;2.40;;
49678;SDS011;35570;48.218;16.326;2023-04-12T03:40:05;3.78;;;2.20;;
49678;SDS011;35570;48.218;16.326;2023-04-12T03:42:31;4.50;;;2.35;;
49678;SDS011;35570;48.218;16.326;2023-04-12T03:44:57;3.30;;;2.00;;
49678;SDS011;35570;48.218;16.326;2023-04-12T03:47:22;3.22;;;2.00;;
49678;SDS011;35570;48.218;16.326;2023-04-12T03:49:48;3.50;;;2.08;;
49678;SDS011;35570;48.218;16.326;2023-04-12T03:52:14;2.83;;;1.98;;
49678;SDS011;35570;48.218;16.326;2023-04-12T03:54:39;3.75;;;1.92;;
49678;SDS011;35570;48.218;16.326;2023-04-12T03:57:05;3.22;;;1.90;;
49678;SDS011;35570;48.218;16.326;2023-04-12T03:59:31;3.22;;;2.05;;
49678;SDS011;35570;48.218;16.326;2023-04-12T04:01:57;3.55;;;2.10;;
49678;SDS011;35570;48.218;16.326;2023-04-12T04:04:25;4.97;;;2.30;;
49678;SDS011;35570;48.218;16.326;2023-04-12T04:06:51;4.57;;;2.20;;
49678;SDS011;35570;48.218;16.326;2023-04-12T04:09:17;3.63;;;2.00;;
49678;SDS011;35570;48.218;16.326;2023-04-12T04:11:43;6.65;;;2.20;;
49678;SDS011;35570;48.218;16.326;2023-04-12T04:14:08;3.17;;;2.10;;
49678;SDS011;35570;48.218;16.326;2023-04-12T04:16:34;3.97;;;1.83;;
49678;SDS011;35570;48.218;16.326;2023-04-12T04:19:00;4.43;;;1.95;;
49678;SDS011;35570;48.218;16.326;2023-04-12T04:21:26;3.15;;;1.67;;
49678;SDS011;35570;48.218;16.326;2023-04-12T04:23:54;3.35;;;2.05;;
49678;SDS011;35570;48.218;16.326;2023-04-12T04:26:22;4.40;;;2.40;;
49678;SDS011;35570;48.218;16.326;2023-04-12T04:28:55;4.15;;;2.53;;
49678;SDS011;35570;48.218;16.326;2023-04-12T04:31:20;4.80;;;2.80;;
49678;SDS011;35570;48.218;16.326;2023-04-12T04:33:50;3.22;;;2.10;;
49678;SDS011;35570;48.218;16.326;2023-04-12T04:36:15;4.57;;;2.20;;
49678;SDS011;35570;48.218;16.326;2023-04-12T04:38:42;3.55;;;2.08;;
49678;SDS011;35570;48.218;16.326;2023-04-12T04:41:07;7.00;;;2.10;;
49678;SDS011;35570;48.218;16.326;2023-04-12T04:43:34;3.03;;;2.00;;
49678;SDS011;35570;48.218;16.326;2023-04-12T04:46:03;3.13;;;1.90;;
49678;SDS011;35570;48.218;16.326;2023-04-12T04:48:29;2.33;;;1.40;;
49678;SDS011;35570;48.218;16.326;2023-04-12T04:50:55;5.75;;;1.92;;
49678;SDS011;35570;48.218;16.326;2023-04-12T04:53:21;2.70;;;1.50;;
49678;SDS011;35570;48.218;16.326;2023-04-12T04:55:47;2.20;;;1.50;;
49678;SDS011;35570;48.218;16.326;2023-04-12T04:58:13;4.72;;;2.00;;
49678;SDS011;35570;48.218;16.326;2023-04-12T05:00:40;6.28;;;2.63;;
49678;SDS011;35570;48.218;16.326;2023-04-12T05:03:08;4.32;;;1.98;;
49678;SDS011;35570;48.218;16.326;2023-04-12T05:05:34;5.57;;;2.13;;
49678;SDS011;35570;48.218;16.326;2023-04-12T05:08:00;3.92;;;1.83;;
49678;SDS011;35570;48.218;16.326;2023-04-12T05:10:26;6.22;;;1.77;;
49678;SDS011;35570;48.218;16.326;2023-04-12T05:12:51;3.22;;;1.70;;
49678;SDS011;35570;48.218;16.326;2023-04-12T05:15:17;3.28;;;1.70;;
49678;SDS011;35570;48.218;16.326;2023-04-12T05:17:44;3.75;;;1.60;;
49678;SDS011;35570;48.218;16.326;2023-04-12T05:20:10;3.55;;;1.58;;
49678;SDS011;35570;48.218;16.326;2023-04-12T05:22:35;3.10;;;1.80;;
49678;SDS011;35570;48.218;16.326;2023-04-12T05:25:01;3.92;;;1.85;;
49678;SDS011;35570;48.218;16.326;2023-04-12T05:27:28;2.60;;;1.77;;
49678;SDS011;35570;48.218;16.326;2023-04-12T05:29:57;2.55;;;1.63;;
49678;SDS011;35570;48.218;16.326;2023-04-12T05:32:23;5.00;;;1.67;;
49678;SDS011;35570;48.218;16.326;2023-04-12T05:34:49;3.28;;;1.60;;
49678;SDS011;35570;48.218;16.326;2023-04-12T05:37:15;3.92;;;1.73;;
49678;SDS011;35570;48.218;16.326;2023-04-12T05:39:40;2.85;;;1.58;;
49678;SDS011;35570;48.218;16.326;2023-04-12T05:42:06;3.65;;;1.50;;
49678;SDS011;35570;48.218;16.326;2023-04-12T05:44:33;2.72;;;1.30;;
49678;SDS011;35570;48.218;16.326;2023-04-12T05:47:00;6.28;;;2.35;;
49678;SDS011;35570;48.218;16.326;2023-04-12T05:49:27;5.65;;;2.00;;
49678;SDS011;35570;48.218;16.326;2023-04-12T05:51:55;5.50;;;1.55;;
49678;SDS011;35570;48.218;16.326;2023-04-12T05:54:21;1.95;;;0.90;;
49678;SDS011;35570;48.218;16.326;2023-04-12T05:56:46;2.33;;;0.90;;
49678;SDS011;35570;48.218;16.326;2023-04-12T05:59:12;2.45;;;1.10;;
49678;SDS011;35570;48.218;16.326;2023-04-12T06:01:37;1.73;;;0.90;;
49678;SDS011;35570;48.218;16.326;2023-04-12T06:04:06;2.85;;;1.10;;
49678;SDS011;35570;48.218;16.326;2023-04-12T06:06:32;3.72;;;1.00;;
49678;SDS011;35570;48.218;16.326;2023-04-12T06:08:58;2.80;;;0.82;;
49678;SDS011;35570;48.218;16.326;2023-04-12T06:11:27;2.85;;;1.63;;
49678;SDS011;35570;48.218;16.326;2023-04-12T06:13:53;3.05;;;1.20;;
49678;SDS011;35570;48.218;16.326;2023-04-12T06:16:19;2.70;;;1.40;;
49678;SDS011;35570;48.218;16.326;2023-04-12T06:18:44;4.13;;;0.90;;
49678;SDS011;35570;48.218;16.326;2023-04-12T06:21:11;4.50;;;1.17;;
49678;SDS011;35570;48.218;16.326;2023-04-12T06:23:37;3.55;;;1.20;;
49678;SDS011;35570;48.218;16.326;2023-04-12T06:26:02;3.78;;;1.35;;
49678;SDS011;35570;48.218;16.326;2023-04-12T06:28:28;3.83;;;1.00;;
49678;SDS011;35570;48.218;16.326;2023-04-12T06:30:54;3.60;;;1.83;;
49678;SDS011;35570;48.218;16.326;2023-04-12T06:33:20;3.90;;;1.33;;
49678;SDS011;35570;48.218;16.326;2023-04-12T06:35:48;2.15;;;1.30;;
49678;SDS011;35570;48.218;16.326;2023-04-12T06:38:14;2.72;;;1.00;;
49678;SDS011;35570;48.218;16.326;2023-04-12T06:40:41;3.33;;;1.30;;
49678;SDS011;35570;48.218;16.326;2023-04-12T06:43:06;1.85;;;0.90;;
49678;SDS011;35570;48.218;16.326;2023-04-12T06:45:32;3.15;;;1.13;;
49678;SDS011;35570;48.218;16.326;2023-04-12T06:47:58;3.03;;;1.10;;
49678;SDS011;35570;48.218;16.326;2023-04-12T06:50:24;2.10;;;0.88;;
49678;SDS011;35570;48.218;16.326;2023-04-12T06:52:50;1.60;;;0.80;;
49678;SDS011;35570;48.218;16.326;2023-04-12T06:55:16;1.75;;;0.82;;
49678;SDS011;35570;48.218;16.326;2023-04-12T06:57:42;3.13;;;1.00;;
49678;SDS011;35570;48.218;16.326;2023-04-12T07:00:08;3.72;;;1.30;;
49678;SDS011;35570;48.218;16.326;2023-04-12T07:02:35;2.25;;;1.02;;
49678;SDS011;35570;48.218;16.326;2023-04-12T07:05:00;3.00;;;1.15;;
49678;SDS011;35570;48.218;16.326;2023-04-12T07:07:26;3.78;;;1.50;;
49678;SDS011;35570;48.218;16.326;2023-04-12T07:09:52;2.40;;;1.38;;
49678;SDS011;35570;48.218;16.326;2023-04-12T07:12:17;3.45;;;1.90;;
49678;SDS011;35570;48.218;16.326;2023-04-12T07:14:43;4.72;;;1.80;;
49678;SDS011;35570;48.218;16.326;2023-04-12T07:17:08;3.28;;;1.60;;
49678;SDS011;35570;48.218;16.326;2023-04-12T07:19:34;3.20;;;1.65;;
49678;SDS011;35570;48.218;16.326;2023-04-12T07:22:00;3.97;;;1.63;;
49678;SDS011;35570;48.218;16.326;2023-04-12T07:24:26;4.10;;;1.50;;
49678;SDS011;35570;48.218;16.326;2023-04-12T07:26:52;4.72;;;1.77;;
49678;SDS011;35570;48.218;16.326;2023-04-12T07:29:21;4.03;;;1.35;;
49678;SDS011;35570;48.218;16.326;2023-04-12T07:31:46;4.10;;;2.30;;
49678;SDS011;35570;48.218;16.326;2023-04-12T07:34:12;5.57;;;2.80;;
49678;SDS011;35570;48.218;16.326;2023-04-12T07:36:38;5.28;;;2.78;;
49678;SDS011;35570;48.218;16.326;2023-04-12T07:39:03;5.25;;;1.92;;
49678;SDS011;35570;48.218;16.326;2023-04-12T07:41:29;3.58;;;1.55;;
49678;SDS011;35570;48.218;16.326;2023-04-12T07:43:55;4.05;;;1.70;;
49678;SDS011;35570;48.218;16.326;2023-04-12T07:46:21;4.55;;;1.58;;
49678;SDS011;35570;48.218;16.326;2023-04-12T07:48:46;4.30;;;1.55;;
49678;SDS011;35570;48.218;16.326;2023-04-12T07:51:12;2.85;;;1.70;;
49678;SDS011;35570;48.218;16.326;2023-04-12T07:53:38;5.07;;;2.13;;
49678;SDS011;35570;48.218;16.326;2023-04-12T07:56:05;5.43;;;1.95;;
49678;SDS011;35570;48.218;16.326;2023-04-12T07:58:32;7.57;;;2.10;;
49678;SDS011;35570;48.218;16.326;2023-04-12T08:00:58;5.20;;;2.10;;
49678;SDS011;35570;48.218;16.326;2023-04-12T08:03:24;4.88;;;1.92;;
49678;SDS011;35570;48.218;16.326;2023-04-12T08:05:50;5.30;;;1.70;;
49678;SDS011;35570;48.218;16.326;2023-04-12T08:08:19;2.53;;;1.40;;
49678;SDS011;35570;48.218;16.326;2023-04-12T08:10:46;3.53;;;1.60;;
49678;SDS011;35570;48.218;16.326;2023-04-12T08:13:12;3.30;;;1.70;;
49678;SDS011;35570;48.218;16.326;2023-04-12T08:15:38;3.42;;;1.80;;
49678;SDS011;35570;48.218;16.326;2023-04-12T08:18:04;3.83;;;1.58;;
49678;SDS011;35570;48.218;16.326;2023-04-12T08:20:30;3.42;;;1.60;;
49678;SDS011;35570;48.218;16.326;2023-04-12T08:22:56;4.93;;;1.80;;
49678;SDS011;35570;48.218;16.326;2023-04-12T08:25:21;4.15;;;1.58;;
49678;SDS011;35570;48.218;16.326;2023-04-12T08:27:47;3.97;;;1.70;;
49678;SDS011;35570;48.218;16.326;2023-04-12T08:30:15;6.95;;;1.70;;
49678;SDS011;35570;48.218;16.326;2023-04-12T08:32:41;4.18;;;1.77;;
49678;SDS011;35570;48.218;16.326;2023-04-12T08:35:07;2.88;;;1.52;;
49678;SDS011;35570;48.218;16.326;2023-04-12T08:37:33;5.43;;;1.73;;
49678;SDS011;35570;48.218;16.326;2023-04-12T08:40:01;6.00;;;1.80;;
49678;SDS011;35570;48.218;16.326;2023-04-12T08:42:31;3.42;;;1.60;;
49678;SDS011;35570;48.218;16.326;2023-04-12T08:45:03;4.03;;;1.73;;
49678;SDS011;35570;48.218;16.326;2023-04-12T08:47:30;3.25;;;1.80;;
49678;SDS011;35570;48.218;16.326;2023-04-12T08:50:01;4.57;;;1.98;;
49678;SDS011;35570;48.218;16.326;2023-04-12T08:52:29;5.13;;;2.10;;
49678;SDS011;35570;48.218;16.326;2023-04-12T08:54:57;4.82;;;2.05;;
49678;SDS011;35570;48.218;16.326;2023-04-12T08:57:30;6.95;;;2.20;;
49678;SDS011;35570;48.218;16.326;2023-04-12T08:59:59;3.60;;;1.67;;
49678;SDS011;35570;48.218;16.326;2023-04-12T09:02:26;5.57;;;1.80;;
49678;SDS011;35570;48.218;16.326;2023-04-12T09:04:52;4.13;;;1.75;;
49678;SDS011;35570;48.218;16.326;2023-04-12T09:07:18;4.45;;;1.73;;
49678;SDS011;35570;48.218;16.326;2023-04-12T09:09:47;4.78;;;1.88;;
49678;SDS011;35570;48.218;16.326;2023-04-12T09:12:15;6.53;;;1.85;;
49678;SDS011;35570;48.218;16.326;2023-04-12T09:14:42;4.88;;;2.25;;
49678;SDS011;35570;48.218;16.326;2023-04-12T09:17:25;7.50;;;2.33;;
49678;SDS011;35570;48.218;16.326;2023-04-12T09:19:51;6.60;;;2.17;;
49678;SDS011;35570;48.218;16.326;2023-04-12T09:22:31;8.88;;;2.28;;
49678;SDS011;35570;48.218;16.326;2023-04-12T09:24:58;5.55;;;1.90;;
49678;SDS011;35570;48.218;16.326;2023-04-12T09:27:23;5.55;;;1.80;;
49678;SDS011;35570;48.218;16.326;2023-04-12T09:29:53;5.10;;;2.28;;
49678;SDS011;35570;48.218;16.326;2023-04-12T09:32:31;4.47;;;2.10;;
49678;SDS011;35570;48.218;16.326;2023-04-12T09:34:57;4.63;;;2.33;;
49678;SDS011;35570;48.218;16.326;2023-04-12T09:37:25;4.72;;;2.25;;
49678;SDS011;35570;48.218;16.326;2023-04-12T09:40:11;5.05;;;2.10;;
49678;SDS011;35570;48.218;16.326;2023-04-12T09:42:57;5.07;;;1.90;;
49678;SDS011;35570;48.218;16.326;2023-04-12T09:45:23;4.85;;;2.17;;
49678;SDS011;35570;48.218;16.326;2023-04-12T09:47:50;7.30;;;2.20;;
49678;SDS011;35570;48.218;16.326;2023-04-12T09:50:20;3.65;;;1.63;;
49678;SDS011;35570;48.218;16.326;2023-04-12T09:52:46;3.92;;;1.58;;
49678;SDS011;35570;48.218;16.326;2023-04-12T09:55:12;3.83;;;1.70;;
49678;SDS011;35570;48.218;16.326;2023-04-12T09:57:40;4.90;;;1.50;;
49678;SDS011;35570;48.218;16.326;2023-04-12T10:00:07;5.75;;;2.40;;
49678;SDS011;35570;48.218;16.326;2023-04-12T10:02:47;3.72;;;1.67;;
49678;SDS011;35570;48.218;16.326;2023-04-12T10:05:15;4.57;;;1.95;;
49678;SDS011;35570;48.218;16.326;2023-04-12T10:07:42;5.00;;;2.40;;
49678;SDS011;35570;48.218;16.326;2023-04-12T10:10:12;3.80;;;1.90;;
49678;SDS011;35570;48.218;16.326;2023-04-12T10:12:41;5.47;;;1.90;;
49678;SDS011;35570;48.218;16.326;2023-04-12T10:15:08;6.43;;;2.28;;
49678;SDS011;35570;48.218;16.326;2023-04-12T10:17:43;6.07;;;2.25;;
49678;SDS011;35570;48.218;16.326;2023-04-12T10:20:16;5.30;;;2.10;;
49678;SDS011;35570;48.218;16.326;2023-04-12T10:22:46;4.53;;;2.00;;
49678;SDS011;35570;48.218;16.326;2023-04-12T10:25:14;3.10;;;1.80;;
49678;SDS011;35570;48.218;16.326;2023-04-12T10:28:12;4.13;;;1.90;;
49678;SDS011;35570;48.218;16.326;2023-04-12T10:30:43;5.10;;;2.28;;
49678;SDS011;35570;48.218;16.326;2023-04-12T10:38:44;5.40;;;2.00;;
49678;SDS011;35570;48.218;16.326;2023-04-12T10:41:17;5.55;;;1.63;;
49678;SDS011;35570;48.218;16.326;2023-04-12T10:43:45;4.10;;;1.70;;
49678;SDS011;35570;48.218;16.326;2023-04-12T10:49:09;2.90;;;1.45;;
49678;SDS011;35570;48.218;16.326;2023-04-12T10:51:39;4.28;;;1.95;;
49678;SDS011;35570;48.218;16.326;2023-04-12T10:56:53;5.05;;;2.08;;
49678;SDS011;35570;48.218;16.326;2023-04-12T10:59:19;4.55;;;1.70;;
49678;SDS011;35570;48.218;16.326;2023-04-12T11:04:32;4.30;;;2.00;;
49678;SDS011;35570;48.218;16.326;2023-04-12T11:07:00;4.95;;;1.65;;
49678;SDS011;35570;48.218;16.326;2023-04-12T11:14:34;6.47;;;1.92;;
49678;SDS011;35570;48.218;16.326;2023-04-12T11:19:42;2.65;;;1.48;;
49678;SDS011;35570;48.218;16.326;2023-04-12T11:22:09;6.68;;;1.80;;
49678;SDS011;35570;48.218;16.326;2023-04-12T11:24:38;4.07;;;1.38;;
49678;SDS011;35570;48.218;16.326;2023-04-12T11:27:03;4.50;;;2.00;;
49678;SDS011;35570;48.218;16.326;2023-04-12T11:29:30;3.08;;;1.23;;
49678;SDS011;35570;48.218;16.326;2023-04-12T11:31:57;2.90;;;1.48;;
49678;SDS011;35570;48.218;16.326;2023-04-12T11:34:22;4.38;;;1.33;;
49678;SDS011;35570;48.218;16.326;2023-04-12T11:36:52;4.22;;;1.45;;
49678;SDS011;35570;48.218;16.326;2023-04-12T11:39:19;2.85;;;1.38;;
49678;SDS011;35570;48.218;16.326;2023-04-12T11:41:46;3.40;;;1.10;;
49678;SDS011;35570;48.218;16.326;2023-04-12T11:44:13;2.70;;;1.20;;
49678;SDS011;35570;48.218;16.326;2023-04-12T11:46:43;5.63;;;1.40;;
49678;SDS011;35570;48.218;16.326;2023-04-12T11:49:09;3.65;;;1.30;;
49678;SDS011;35570;48.218;16.326;2023-04-12T11:51:39;2.53;;;1.15;;
49678;SDS011;35570;48.218;16.326;2023-04-12T11:54:05;2.90;;;1.60;;
49678;SDS011;35570;48.218;16.326;2023-04-12T11:56:31;4.78;;;1.60;;
49678;SDS011;35570;48.218;16.326;2023-04-12T11:58:56;5.15;;;1.50;;
49678;SDS011;35570;48.218;16.326;2023-04-12T12:01:22;3.95;;;1.38;;
49678;SDS011;35570;48.218;16.326;2023-04-12T12:03:48;4.78;;;1.15;;
49678;SDS011;35570;48.218;16.326;2023-04-12T12:06:14;3.50;;;1.08;;
49678;SDS011;35570;48.218;16.326;2023-04-12T12:08:40;3.83;;;1.20;;
49678;SDS011;35570;48.218;16.326;2023-04-12T12:11:06;2.80;;;1.20;;
49678;SDS011;35570;48.218;16.326;2023-04-12T12:16:11;3.10;;;1.33;;
49678;SDS011;35570;48.218;16.326;2023-04-12T12:18:40;2.75;;;1.20;;
49678;SDS011;35570;48.218;16.326;2023-04-12T12:21:13;3.50;;;1.27;;
49678;SDS011;35570;48.218;16.326;2023-04-12T12:23:41;2.83;;;1.40;;
49678;SDS011;35570;48.218;16.326;2023-04-12T12:26:07;2.90;;;1.20;;
49678;SDS011;35570;48.218;16.326;2023-04-12T12:28:37;3.50;;;1.20;;
49678;SDS011;35570;48.218;16.326;2023-04-12T12:31:06;4.95;;;1.10;;
49678;SDS011;35570;48.218;16.326;2023-04-12T12:33:40;3.35;;;1.20;;
49678;SDS011;35570;48.218;16.326;2023-04-12T12:36:08;2.67;;;1.13;;
49678;SDS011;35570;48.218;16.326;2023-04-12T12:38:37;2.92;;;1.17;;
49678;SDS011;35570;48.218;16.326;2023-04-12T12:43:51;4.47;;;1.20;;
49678;SDS011;35570;48.218;16.326;2023-04-12T12:46:17;4.72;;;1.30;;
49678;SDS011;35570;48.218;16.326;2023-04-12T12:48:44;4.35;;;1.20;;
49678;SDS011;35570;48.218;16.326;2023-04-12T12:51:12;3.92;;;1.20;;
49678;SDS011;35570;48.218;16.326;2023-04-12T12:53:41;3.30;;;1.35;;
49678;SDS011;35570;48.218;16.326;2023-04-12T12:56:07;3.53;;;1.10;;
49678;SDS011;35570;48.218;16.326;2023-04-12T12:58:35;3.63;;;1.50;;
49678;SDS011;35570;48.218;16.326;2023-04-12T13:01:01;3.78;;;1.23;;
49678;SDS011;35570;48.218;16.326;2023-04-12T13:03:28;2.03;;;1.20;;
49678;SDS011;35570;48.218;16.326;2023-04-12T13:05:57;4.05;;;1.50;;
49678;SDS011;35570;48.218;16.326;2023-04-12T13:08:23;3.38;;;1.50;;
49678;SDS011;35570;48.218;16.326;2023-04-12T13:10:49;6.40;;;1.75;;
49678;SDS011;35570;48.218;16.326;2023-04-12T13:13:16;6.25;;;1.75;;
49678;SDS011;35570;48.218;16.326;2023-04-12T13:15:42;3.67;;;1.70;;
49678;SDS011;35570;48.218;16.326;2023-04-12T13:18:07;4.85;;;1.80;;
49678;SDS011;35570;48.218;16.326;2023-04-12T13:20:33;10.95;;;1.92;;
49678;SDS011;35570;48.218;16.326;2023-04-12T13:22:59;4.80;;;1.48;;
49678;SDS011;35570;48.218;16.326;2023-04-12T13:25:24;6.13;;;1.77;;
49678;SDS011;35570;48.218;16.326;2023-04-12T13:27:50;4.50;;;1.40;;
49678;SDS011;35570;48.218;16.326;2023-04-12T13:30:17;3.83;;;1.77;;
49678;SDS011;35570;48.218;16.326;2023-04-12T13:32:43;5.10;;;1.80;;
49678;SDS011;35570;48.218;16.326;2023-04-12T13:35:09;5.07;;;1.90;;
49678;SDS011;35570;48.218;16.326;2023-04-12T13:37:35;4.00;;;1.80;;
49678;SDS011;35570;48.218;16.326;2023-04-12T13:40:01;6.13;;;2.30;;
49678;SDS011;35570;48.218;16.326;2023-04-12T13:42:28;11.98;;;3.13;;
49678;SDS011;35570;48.218;16.326;2023-04-12T13:44:53;4.28;;;2.08;;
49678;SDS011;35570;48.218;16.326;2023-04-12T13:47:19;4.35;;;1.80;;
49678;SDS011;35570;48.218;16.326;2023-04-12T13:49:45;6.32;;;1.83;;
49678;SDS011;35570;48.218;16.326;2023-04-12T13:52:11;8.15;;;1.63;;
49678;SDS011;35570;48.218;16.326;2023-04-12T13:54:37;3.63;;;1.40;;
49678;SDS011;35570;48.218;16.326;2023-04-12T13:57:03;6.10;;;2.15;;
49678;SDS011;35570;48.218;16.326;2023-04-12T13:59:29;4.38;;;1.90;;
49678;SDS011;35570;48.218;16.326;2023-04-12T14:01:55;4.78;;;1.83;;
49678;SDS011;35570;48.218;16.326;2023-04-12T14:04:21;5.60;;;1.90;;
49678;SDS011;35570;48.218;16.326;2023-04-12T14:06:47;3.15;;;2.00;;
49678;SDS011;35570;48.218;16.326;2023-04-12T14:09:31;4.53;;;1.50;;
49678;SDS011;35570;48.218;16.326;2023-04-12T14:11:58;3.17;;;1.50;;
49678;SDS011;35570;48.218;16.326;2023-04-12T14:14:25;6.35;;;2.55;;
49678;SDS011;35570;48.218;16.326;2023-04-12T14:16:52;7.15;;;2.53;;
49678;SDS011;35570;48.218;16.326;2023-04-12T14:19:21;7.97;;;3.10;;
49678;SDS011;35570;48.218;16.326;2023-04-12T14:21:47;7.15;;;3.15;;
49678;SDS011;35570;48.218;16.326;2023-04-12T14:24:14;9.35;;;3.05;;
49678;SDS011;35570;48.218;16.326;2023-04-12T14:26:40;6.18;;;3.30;;
49678;SDS011;35570;48.218;16.326;2023-04-12T14:29:06;5.78;;;3.00;;
49678;SDS011;35570;48.218;16.326;2023-04-12T14:31:35;5.70;;;3.30;;
49678;SDS011;35570;48.218;16.326;2023-04-12T14:34:02;6.50;;;3.47;;
49678;SDS011;35570;48.218;16.326;2023-04-12T14:36:28;5.85;;;2.92;;
49678;SDS011;35570;48.218;16.326;2023-04-12T14:38:55;7.30;;;3.28;;
49678;SDS011;35570;48.218;16.326;2023-04-12T14:41:21;5.85;;;3.03;;
49678;SDS011;35570;48.218;16.326;2023-04-12T14:43:47;7.97;;;3.58;;
49678;SDS011;35570;48.218;16.326;2023-04-12T14:46:14;5.07;;;3.00;;
49678;SDS011;35570;48.218;16.326;2023-04-12T14:48:40;4.68;;;3.65;;
49678;SDS011;35570;48.218;16.326;2023-04-12T14:51:06;5.30;;;3.45;;
49678;SDS011;35570;48.218;16.326;2023-04-12T14:53:32;6.13;;;3.30;;
49678;SDS011;35570;48.218;16.326;2023-04-12T14:55:58;7.18;;;3.85;;
49678;SDS011;35570;48.218;16.326;2023-04-12T14:58:26;7.72;;;3.90;;
49678;SDS011;35570;48.218;16.326;2023-04-12T15:00:56;7.75;;;3.80;;
49678;SDS011;35570;48.218;16.326;2023-04-12T15:03:24;6.43;;;3.00;;
49678;SDS011;35570;48.218;16.326;2023-04-12T15:05:50;6.80;;;3.10;;
49678;SDS011;35570;48.218;16.326;2023-04-12T15:08:16;6.18;;;2.97;;
49678;SDS011;35570;48.218;16.326;2023-04-12T15:10:42;4.95;;;2.78;;
49678;SDS011;35570;48.218;16.326;2023-04-12T15:13:08;6.72;;;2.67;;
49678;SDS011;35570;48.218;16.326;2023-04-12T15:15:34;7.50;;;2.50;;